sensor_id;sensor_type;location;lat;lon;timestamp;pressure;altitude;pressure_sealevel;temperature;humidity
38688;BME280;24444;53.216;-6.664;2022-10-01T00:01:14;98868.93;;;5.65;100.00
38688;BME280;24444;53.216;-6.664;2022-10-01T00:03:42;98873.99;;;6.43;100.00
38688;BME280;24444;53.216;-6.664;2022-10-01T00:06:11;98873.86;;;6.01;100.00
38688;BME280;24444;53.216;-6.664;2022-10-01T00:08:40;98873.81;;;6.29;100.00
38688;BME280;24444;53.216;-6.664;2022-10-01T00:11:09;98872.24;;;6.04;100.00
38688;BME280;24444;53.216;-6.664;2022-10-01T00:13:36;98877.48;;;6.40;100.00
38688;BME280;24444;53.216;-6.664;2022-10-01T00:16:05;98881.20;;;6.05;100.00
38688;BME280;24444;53.216;-6.664;2022-10-01T00:18:35;98872.03;;;6.45;100.00
38688;BME280;24444;53.216;-6.664;2022-10-01T00:23:51;98876.69;;;6.26;100.00
38688;BME280;24444;53.216;-6.664;2022-10-01T00:26:21;98877.98;;;5.91;100.00
38688;BME280;24444;53.216;-6.664;2022-10-01T00:28:53;98884.83;;;5.76;100.00
38688;BME280;24444;53.216;-6.664;2022-10-01T00:31:21;98887.15;;;5.82;100.00
38688;BME280;24444;53.216;-6.664;2022-10-01T00:33:54;98888.52;;;5.80;100.00
38688;BME280;24444;53.216;-6.664;2022-10-01T00:36:22;98892.98;;;5.59;100.00
38688;BME280;24444;53.216;-6.664;2022-10-01T00:38:49;98895.28;;;6.11;100.00
38688;BME280;24444;53.216;-6.664;2022-10-01T00:41:17;98895.44;;;5.61;100.00
38688;BME280;24444;53.216;-6.664;2022-10-01T00:43:48;98895.89;;;5.52;100.00
38688;BME280;24444;53.216;-6.664;2022-10-01T00:46:21;98899.67;;;6.24;100.00
38688;BME280;24444;53.216;-6.664;2022-10-01T00:48:54;98899.51;;;6.30;100.00
38688;BME280;24444;53.216;-6.664;2022-10-01T00:51:23;98902.72;;;6.00;100.00
38688;BME280;24444;53.216;-6.664;2022-10-01T00:53:53;98905.48;;;6.28;100.00
38688;BME280;24444;53.216;-6.664;2022-10-01T00:56:24;98905.38;;;5.21;100.00
38688;BME280;24444;53.216;-6.664;2022-10-01T00:58:52;98910.83;;;6.12;100.00
38688;BME280;24444;53.216;-6.664;2022-10-01T01:01:20;98908.34;;;6.17;100.00
38688;BME280;24444;53.216;-6.664;2022-10-01T01:03:48;98910.42;;;5.70;100.00
38688;BME280;24444;53.216;-6.664;2022-10-01T01:06:15;98912.80;;;6.29;100.00
38688;BME280;24444;53.216;-6.664;2022-10-01T01:08:43;98915.96;;;6.16;100.00
38688;BME280;24444;53.216;-6.664;2022-10-01T01:11:15;98916.97;;;6.07;100.00
38688;BME280;24444;53.216;-6.664;2022-10-01T01:13:54;98921.88;;;6.05;100.00
38688;BME280;24444;53.216;-6.664;2022-10-01T01:16:26;98924.44;;;6.39;100.00
38688;BME280;24444;53.216;-6.664;2022-10-01T01:19:00;98925.96;;;5.80;100.00
38688;BME280;24444;53.216;-6.664;2022-10-01T01:21:30;98927.98;;;6.19;100.00
38688;BME280;24444;53.216;-6.664;2022-10-01T01:24:15;98925.50;;;6.00;100.00
38688;BME280;24444;53.216;-6.664;2022-10-01T01:26:57;98934.01;;;6.14;100.00
38688;BME280;24444;53.216;-6.664;2022-10-01T01:29:32;98937.13;;;5.99;100.00
38688;BME280;24444;53.216;-6.664;2022-10-01T01:32:03;98942.55;;;6.20;100.00
38688;BME280;24444;53.216;-6.664;2022-10-01T01:34:34;98941.69;;;6.27;100.00
38688;BME280;24444;53.216;-6.664;2022-10-01T01:37:06;98947.57;;;5.59;100.00
38688;BME280;24444;53.216;-6.664;2022-10-01T01:39:35;98948.64;;;5.56;100.00
38688;BME280;24444;53.216;-6.664;2022-10-01T01:42:06;98950.38;;;6.26;100.00
38688;BME280;24444;53.216;-6.664;2022-10-01T01:44:39;98955.42;;;5.73;100.00
38688;BME280;24444;53.216;-6.664;2022-10-01T01:47:10;98955.97;;;5.81;100.00
38688;BME280;24444;53.216;-6.664;2022-10-01T01:49:39;98954.72;;;5.64;100.00
38688;BME280;24444;53.216;-6.664;2022-10-01T01:52:10;98957.19;;;6.01;100.00
38688;BME280;24444;53.216;-6.664;2022-10-01T01:54:38;98957.37;;;5.83;100.00
38688;BME280;24444;53.216;-6.664;2022-10-01T01:57:06;98959.20;;;5.56;100.00
38688;BME280;24444;53.216;-6.664;2022-10-01T01:59:34;98967.57;;;5.65;100.00
38688;BME280;24444;53.216;-6.664;2022-10-01T02:02:02;98965.00;;;5.80;100.00
38688;BME280;24444;53.216;-6.664;2022-10-01T02:04:34;98969.46;;;5.94;100.00
38688;BME280;24444;53.216;-6.664;2022-10-01T02:07:17;98969.55;;;5.08;100.00
38688;BME280;24444;53.216;-6.664;2022-10-01T02:09:54;98974.69;;;5.42;100.00
38688;BME280;24444;53.216;-6.664;2022-10-01T02:12:34;98978.14;;;5.27;100.00
38688;BME280;24444;53.216;-6.664;2022-10-01T02:15:10;98980.26;;;5.18;100.00
38688;BME280;24444;53.216;-6.664;2022-10-01T02:17:49;98990.14;;;5.36;100.00
38688;BME280;24444;53.216;-6.664;2022-10-01T02:20:23;98987.52;;;4.91;100.00
38688;BME280;24444;53.216;-6.664;2022-10-01T02:22:55;98991.73;;;5.17;100.00
38688;BME280;24444;53.216;-6.664;2022-10-01T02:25:28;98991.42;;;5.67;100.00
38688;BME280;24444;53.216;-6.664;2022-10-01T02:28:01;98996.61;;;5.24;100.00
38688;BME280;24444;53.216;-6.664;2022-10-01T02:30:31;99001.13;;;5.28;100.00
38688;BME280;24444;53.216;-6.664;2022-10-01T02:33:00;98997.44;;;5.38;100.00
38688;BME280;24444;53.216;-6.664;2022-10-01T02:35:31;98991.64;;;5.21;100.00
38688;BME280;24444;53.216;-6.664;2022-10-01T02:38:03;98995.87;;;5.21;100.00
38688;BME280;24444;53.216;-6.664;2022-10-01T02:40:33;98997.13;;;4.89;100.00
38688;BME280;24444;53.216;-6.664;2022-10-01T02:43:06;98993.97;;;5.17;100.00
38688;BME280;24444;53.216;-6.664;2022-10-01T02:45:36;98993.42;;;5.41;100.00
38688;BME280;24444;53.216;-6.664;2022-10-01T02:48:08;98991.21;;;5.65;100.00
38688;BME280;24444;53.216;-6.664;2022-10-01T02:50:41;98986.23;;;5.33;100.00
38688;BME280;24444;53.216;-6.664;2022-10-01T02:53:15;98985.96;;;5.29;100.00
38688;BME280;24444;53.216;-6.664;2022-10-01T02:55:45;98986.44;;;5.30;100.00
38688;BME280;24444;53.216;-6.664;2022-10-01T02:58:14;98985.76;;;5.06;100.00
38688;BME280;24444;53.216;-6.664;2022-10-01T03:00:41;98982.93;;;5.39;100.00
38688;BME280;24444;53.216;-6.664;2022-10-01T03:03:08;98983.22;;;5.04;100.00
38688;BME280;24444;53.216;-6.664;2022-10-01T03:05:36;98988.24;;;5.55;100.00
38688;BME280;24444;53.216;-6.664;2022-10-01T03:08:03;98989.97;;;4.91;100.00
38688;BME280;24444;53.216;-6.664;2022-10-01T03:10:30;98995.19;;;5.33;100.00
38688;BME280;24444;53.216;-6.664;2022-10-01T03:12:57;99001.57;;;5.20;100.00
38688;BME280;24444;53.216;-6.664;2022-10-01T03:15:24;99010.42;;;5.44;100.00
38688;BME280;24444;53.216;-6.664;2022-10-01T03:17:52;99017.33;;;5.73;100.00
38688;BME280;24444;53.216;-6.664;2022-10-01T03:20:20;99018.70;;;5.51;100.00
38688;BME280;24444;53.216;-6.664;2022-10-01T03:22:47;99016.74;;;5.54;100.00
38688;BME280;24444;53.216;-6.664;2022-10-01T03:25:15;99014.92;;;5.13;100.00
38688;BME280;24444;53.216;-6.664;2022-10-01T03:27:43;99016.16;;;5.26;100.00
38688;BME280;24444;53.216;-6.664;2022-10-01T03:30:11;99020.89;;;5.10;100.00
38688;BME280;24444;53.216;-6.664;2022-10-01T03:32:39;99024.64;;;4.91;100.00
38688;BME280;24444;53.216;-6.664;2022-10-01T03:35:07;99032.44;;;4.90;100.00
38688;BME280;24444;53.216;-6.664;2022-10-01T03:37:34;99037.02;;;5.04;100.00
38688;BME280;24444;53.216;-6.664;2022-10-01T03:40:02;99032.53;;;4.76;100.00
38688;BME280;24444;53.216;-6.664;2022-10-01T03:42:30;99029.99;;;4.66;100.00
38688;BME280;24444;53.216;-6.664;2022-10-01T03:44:58;99032.61;;;4.77;100.00
38688;BME280;24444;53.216;-6.664;2022-10-01T03:47:25;99034.80;;;5.39;100.00
38688;BME280;24444;53.216;-6.664;2022-10-01T03:49:52;99042.04;;;4.87;100.00
38688;BME280;24444;53.216;-6.664;2022-10-01T03:52:19;99042.55;;;4.70;100.00
38688;BME280;24444;53.216;-6.664;2022-10-01T03:54:47;99047.61;;;5.02;100.00
38688;BME280;24444;53.216;-6.664;2022-10-01T03:57:14;99049.55;;;4.71;100.00
38688;BME280;24444;53.216;-6.664;2022-10-01T03:59:42;99052.71;;;4.77;100.00
38688;BME280;24444;53.216;-6.664;2022-10-01T04:02:09;99059.80;;;4.76;100.00
38688;BME280;24444;53.216;-6.664;2022-10-01T04:04:37;99062.56;;;4.69;100.00
38688;BME280;24444;53.216;-6.664;2022-10-01T04:07:04;99058.05;;;5.01;100.00
38688;BME280;24444;53.216;-6.664;2022-10-01T04:09:31;99062.55;;;4.54;100.00
38688;BME280;24444;53.216;-6.664;2022-10-01T04:11:58;99062.88;;;4.26;100.00
38688;BME280;24444;53.216;-6.664;2022-10-01T04:14:25;99069.26;;;4.71;100.00
38688;BME280;24444;53.216;-6.664;2022-10-01T04:16:52;99070.97;;;4.80;100.00
38688;BME280;24444;53.216;-6.664;2022-10-01T04:19:19;99074.25;;;5.00;100.00
38688;BME280;24444;53.216;-6.664;2022-10-01T04:21:47;99074.99;;;4.51;100.00
38688;BME280;24444;53.216;-6.664;2022-10-01T04:24:14;99075.12;;;4.19;100.00
38688;BME280;24444;53.216;-6.664;2022-10-01T04:26:42;99081.03;;;4.74;100.00
38688;BME280;24444;53.216;-6.664;2022-10-01T04:29:10;99085.63;;;4.84;100.00
38688;BME280;24444;53.216;-6.664;2022-10-01T04:31:37;99090.83;;;5.08;100.00
38688;BME280;24444;53.216;-6.664;2022-10-01T04:34:04;99096.59;;;4.43;100.00
38688;BME280;24444;53.216;-6.664;2022-10-01T04:36:31;99099.69;;;4.29;100.00
38688;BME280;24444;53.216;-6.664;2022-10-01T04:38:59;99103.12;;;4.36;100.00
38688;BME280;24444;53.216;-6.664;2022-10-01T04:41:26;99105.56;;;4.42;100.00
38688;BME280;24444;53.216;-6.664;2022-10-01T04:43:53;99106.59;;;4.72;100.00
38688;BME280;24444;53.216;-6.664;2022-10-01T04:46:20;99105.74;;;4.61;100.00
38688;BME280;24444;53.216;-6.664;2022-10-01T04:48:48;99103.89;;;4.96;100.00
38688;BME280;24444;53.216;-6.664;2022-10-01T04:51:16;99108.84;;;4.62;100.00
38688;BME280;24444;53.216;-6.664;2022-10-01T04:53:43;99113.31;;;4.53;100.00
38688;BME280;24444;53.216;-6.664;2022-10-01T04:56:11;99115.85;;;4.89;100.00
38688;BME280;24444;53.216;-6.664;2022-10-01T04:58:38;99116.20;;;4.66;100.00
38688;BME280;24444;53.216;-6.664;2022-10-01T05:01:05;99122.84;;;4.51;100.00
38688;BME280;24444;53.216;-6.664;2022-10-01T05:03:33;99124.17;;;4.81;100.00
38688;BME280;24444;53.216;-6.664;2022-10-01T05:06:00;99125.91;;;4.18;100.00
38688;BME280;24444;53.216;-6.664;2022-10-01T05:08:27;99126.27;;;5.01;100.00
38688;BME280;24444;53.216;-6.664;2022-10-01T05:10:54;99128.76;;;4.55;100.00
38688;BME280;24444;53.216;-6.664;2022-10-01T05:13:22;99130.52;;;4.20;100.00
38688;BME280;24444;53.216;-6.664;2022-10-01T05:15:49;99136.39;;;4.55;100.00
38688;BME280;24444;53.216;-6.664;2022-10-01T05:18:16;99141.60;;;4.78;100.00
38688;BME280;24444;53.216;-6.664;2022-10-01T05:20:43;99146.03;;;4.48;100.00
38688;BME280;24444;53.216;-6.664;2022-10-01T05:23:11;99147.34;;;4.65;100.00
38688;BME280;24444;53.216;-6.664;2022-10-01T05:25:38;99150.59;;;4.63;100.00
38688;BME280;24444;53.216;-6.664;2022-10-01T05:28:05;99151.30;;;4.78;100.00
38688;BME280;24444;53.216;-6.664;2022-10-01T05:30:33;99153.51;;;4.68;100.00
38688;BME280;24444;53.216;-6.664;2022-10-01T05:33:03;99159.76;;;4.79;100.00
38688;BME280;24444;53.216;-6.664;2022-10-01T05:35:30;99166.12;;;5.13;100.00
38688;BME280;24444;53.216;-6.664;2022-10-01T05:37:59;99172.76;;;4.96;100.00
38688;BME280;24444;53.216;-6.664;2022-10-01T05:40:29;99173.49;;;4.50;100.00
38688;BME280;24444;53.216;-6.664;2022-10-01T05:42:57;99177.88;;;5.10;100.00
38688;BME280;24444;53.216;-6.664;2022-10-01T05:45:26;99182.83;;;4.97;100.00
38688;BME280;24444;53.216;-6.664;2022-10-01T05:47:56;99184.60;;;5.00;100.00
38688;BME280;24444;53.216;-6.664;2022-10-01T05:50:23;99187.57;;;5.11;100.00
38688;BME280;24444;53.216;-6.664;2022-10-01T05:52:51;99191.37;;;4.93;100.00
38688;BME280;24444;53.216;-6.664;2022-10-01T05:55:20;99197.15;;;5.16;100.00
38688;BME280;24444;53.216;-6.664;2022-10-01T05:57:56;99199.90;;;5.04;100.00
38688;BME280;24444;53.216;-6.664;2022-10-01T06:00:24;99199.24;;;5.36;100.00
38688;BME280;24444;53.216;-6.664;2022-10-01T06:02:52;99194.92;;;5.15;100.00
38688;BME280;24444;53.216;-6.664;2022-10-01T06:05:20;99192.65;;;5.01;100.00
38688;BME280;24444;53.216;-6.664;2022-10-01T06:07:48;99192.34;;;5.02;100.00
38688;BME280;24444;53.216;-6.664;2022-10-01T06:10:16;99199.21;;;4.79;100.00
38688;BME280;24444;53.216;-6.664;2022-10-01T06:12:44;99196.51;;;5.07;100.00
38688;BME280;24444;53.216;-6.664;2022-10-01T06:15:12;99203.89;;;5.40;100.00
38688;BME280;24444;53.216;-6.664;2022-10-01T06:17:40;99205.25;;;5.18;100.00
38688;BME280;24444;53.216;-6.664;2022-10-01T06:20:08;99208.39;;;5.03;100.00
38688;BME280;24444;53.216;-6.664;2022-10-01T06:22:35;99223.62;;;5.24;100.00
38688;BME280;24444;53.216;-6.664;2022-10-01T06:25:04;99225.89;;;4.86;100.00
38688;BME280;24444;53.216;-6.664;2022-10-01T06:27:31;99234.99;;;4.99;100.00
38688;BME280;24444;53.216;-6.664;2022-10-01T06:29:59;99242.84;;;5.03;100.00
38688;BME280;24444;53.216;-6.664;2022-10-01T06:32:26;99243.09;;;5.23;100.00
38688;BME280;24444;53.216;-6.664;2022-10-01T06:34:53;99245.93;;;4.75;100.00
38688;BME280;24444;53.216;-6.664;2022-10-01T06:37:20;99243.64;;;5.20;100.00
38688;BME280;24444;53.216;-6.664;2022-10-01T06:39:47;99250.45;;;5.19;100.00
38688;BME280;24444;53.216;-6.664;2022-10-01T06:42:14;99257.29;;;5.02;100.00
38688;BME280;24444;53.216;-6.664;2022-10-01T06:44:40;99260.75;;;5.28;100.00
38688;BME280;24444;53.216;-6.664;2022-10-01T06:47:08;99262.10;;;5.05;100.00
38688;BME280;24444;53.216;-6.664;2022-10-01T06:49:35;99259.41;;;5.29;100.00
38688;BME280;24444;53.216;-6.664;2022-10-01T06:52:03;99266.69;;;5.63;100.00
38688;BME280;24444;53.216;-6.664;2022-10-01T06:54:29;99267.88;;;5.29;100.00
38688;BME280;24444;53.216;-6.664;2022-10-01T06:56:56;99271.99;;;5.11;100.00
38688;BME280;24444;53.216;-6.664;2022-10-01T06:59:24;99265.54;;;5.42;100.00
38688;BME280;24444;53.216;-6.664;2022-10-01T07:01:51;99271.76;;;5.18;100.00
38688;BME280;24444;53.216;-6.664;2022-10-01T07:04:19;99267.47;;;5.18;100.00
38688;BME280;24444;53.216;-6.664;2022-10-01T07:06:46;99268.99;;;5.35;100.00
38688;BME280;24444;53.216;-6.664;2022-10-01T07:09:13;99277.19;;;5.11;100.00
38688;BME280;24444;53.216;-6.664;2022-10-01T07:11:41;99275.31;;;4.98;100.00
38688;BME280;24444;53.216;-6.664;2022-10-01T07:14:08;99276.24;;;5.01;100.00
38688;BME280;24444;53.216;-6.664;2022-10-01T07:16:37;99276.08;;;5.03;100.00
38688;BME280;24444;53.216;-6.664;2022-10-01T07:19:04;99276.43;;;5.38;100.00
38688;BME280;24444;53.216;-6.664;2022-10-01T07:21:32;99277.80;;;4.92;100.00
38688;BME280;24444;53.216;-6.664;2022-10-01T07:23:59;99278.79;;;5.05;100.00
38688;BME280;24444;53.216;-6.664;2022-10-01T07:26:27;99284.45;;;5.26;100.00
38688;BME280;24444;53.216;-6.664;2022-10-01T07:28:54;99287.25;;;5.09;100.00
38688;BME280;24444;53.216;-6.664;2022-10-01T07:31:22;99292.68;;;5.06;100.00
38688;BME280;24444;53.216;-6.664;2022-10-01T07:33:55;99299.69;;;5.18;100.00
38688;BME280;24444;53.216;-6.664;2022-10-01T07:36:22;99301.62;;;5.54;100.00
38688;BME280;24444;53.216;-6.664;2022-10-01T07:38:50;99300.13;;;5.28;100.00
38688;BME280;24444;53.216;-6.664;2022-10-01T07:41:17;99306.34;;;5.53;100.00
38688;BME280;24444;53.216;-6.664;2022-10-01T07:43:45;99307.14;;;5.02;100.00
38688;BME280;24444;53.216;-6.664;2022-10-01T07:46:12;99316.04;;;5.38;100.00
38688;BME280;24444;53.216;-6.664;2022-10-01T07:48:40;99326.04;;;5.50;100.00
38688;BME280;24444;53.216;-6.664;2022-10-01T07:51:08;99325.26;;;5.50;100.00
38688;BME280;24444;53.216;-6.664;2022-10-01T07:53:35;99322.08;;;6.39;100.00
38688;BME280;24444;53.216;-6.664;2022-10-01T07:56:03;99322.70;;;6.30;100.00
38688;BME280;24444;53.216;-6.664;2022-10-01T07:58:31;99322.47;;;5.69;100.00
38688;BME280;24444;53.216;-6.664;2022-10-01T08:01:02;99320.03;;;6.23;100.00
38688;BME280;24444;53.216;-6.664;2022-10-01T08:03:29;99325.06;;;6.20;100.00
38688;BME280;24444;53.216;-6.664;2022-10-01T08:05:57;99320.30;;;5.62;100.00
38688;BME280;24444;53.216;-6.664;2022-10-01T08:08:24;99314.78;;;6.58;100.00
38688;BME280;24444;53.216;-6.664;2022-10-01T08:10:51;99321.87;;;8.04;100.00
38688;BME280;24444;53.216;-6.664;2022-10-01T08:13:19;99317.79;;;8.02;100.00
38688;BME280;24444;53.216;-6.664;2022-10-01T08:15:47;99317.16;;;7.70;100.00
38688;BME280;24444;53.216;-6.664;2022-10-01T08:18:15;99315.66;;;8.84;100.00
38688;BME280;24444;53.216;-6.664;2022-10-01T08:20:42;99312.64;;;8.33;100.00
38688;BME280;24444;53.216;-6.664;2022-10-01T08:23:12;99312.74;;;8.11;100.00
38688;BME280;24444;53.216;-6.664;2022-10-01T08:25:41;99314.53;;;9.97;100.00
38688;BME280;24444;53.216;-6.664;2022-10-01T08:28:09;99316.73;;;11.22;96.10
38688;BME280;24444;53.216;-6.664;2022-10-01T08:30:37;99326.98;;;12.27;89.23
38688;BME280;24444;53.216;-6.664;2022-10-01T08:33:06;99333.56;;;13.73;83.06
38688;BME280;24444;53.216;-6.664;2022-10-01T08:35:33;99339.92;;;13.54;79.39
38688;BME280;24444;53.216;-6.664;2022-10-01T08:38:01;99342.37;;;12.98;78.06
38688;BME280;24444;53.216;-6.664;2022-10-01T08:40:30;99345.36;;;10.67;82.66
38688;BME280;24444;53.216;-6.664;2022-10-01T08:43:01;99352.88;;;11.13;86.67
38688;BME280;24444;53.216;-6.664;2022-10-01T08:45:35;99357.28;;;9.55;91.37
38688;BME280;24444;53.216;-6.664;2022-10-01T08:48:12;99360.48;;;9.07;95.82
38688;BME280;24444;53.216;-6.664;2022-10-01T08:50:50;99368.60;;;9.42;96.80
38688;BME280;24444;53.216;-6.664;2022-10-01T08:53:28;99373.31;;;10.27;94.81
38688;BME280;24444;53.216;-6.664;2022-10-01T08:55:57;99372.96;;;11.40;93.83
38688;BME280;24444;53.216;-6.664;2022-10-01T08:58:30;99374.20;;;13.62;85.47
38688;BME280;24444;53.216;-6.664;2022-10-01T09:00:59;99381.64;;;14.16;76.20
38688;BME280;24444;53.216;-6.664;2022-10-01T09:03:29;99388.58;;;15.06;72.43
38688;BME280;24444;53.216;-6.664;2022-10-01T09:06:07;99385.70;;;14.46;67.86
38688;BME280;24444;53.216;-6.664;2022-10-01T09:08:45;99384.45;;;14.72;68.29
38688;BME280;24444;53.216;-6.664;2022-10-01T09:11:27;99381.91;;;13.89;70.89
38688;BME280;24444;53.216;-6.664;2022-10-01T09:14:13;99388.32;;;13.86;76.56
38688;BME280;24444;53.216;-6.664;2022-10-01T09:16:48;99389.74;;;14.26;71.63
38688;BME280;24444;53.216;-6.664;2022-10-01T09:19:31;99392.48;;;14.03;69.09
38688;BME280;24444;53.216;-6.664;2022-10-01T09:22:09;99395.65;;;14.17;68.09
38688;BME280;24444;53.216;-6.664;2022-10-01T09:24:42;99400.49;;;12.91;73.26
38688;BME280;24444;53.216;-6.664;2022-10-01T09:27:13;99400.30;;;11.68;77.56
38688;BME280;24444;53.216;-6.664;2022-10-01T09:29:46;99399.21;;;10.96;81.02
38688;BME280;24444;53.216;-6.664;2022-10-01T09:32:18;99400.27;;;10.45;85.85
38688;BME280;24444;53.216;-6.664;2022-10-01T09:34:48;99401.99;;;10.65;86.24
38688;BME280;24444;53.216;-6.664;2022-10-01T09:37:28;99404.31;;;10.79;86.88
38688;BME280;24444;53.216;-6.664;2022-10-01T09:40:04;99403.44;;;10.73;89.15
38688;BME280;24444;53.216;-6.664;2022-10-01T09:42:37;99408.60;;;9.83;90.58
38688;BME280;24444;53.216;-6.664;2022-10-01T09:45:05;99414.76;;;9.77;90.98
38688;BME280;24444;53.216;-6.664;2022-10-01T09:47:32;99417.65;;;10.37;91.95
38688;BME280;24444;53.216;-6.664;2022-10-01T09:50:03;99414.44;;;10.85;91.26
38688;BME280;24444;53.216;-6.664;2022-10-01T09:52:33;99422.30;;;10.89;91.18
38688;BME280;24444;53.216;-6.664;2022-10-01T09:55:04;99423.03;;;9.72;92.98
38688;BME280;24444;53.216;-6.664;2022-10-01T09:57:35;99422.22;;;10.90;94.75
38688;BME280;24444;53.216;-6.664;2022-10-01T10:00:06;99422.58;;;11.05;92.07
38688;BME280;24444;53.216;-6.664;2022-10-01T10:02:39;99427.64;;;10.88;90.85
38688;BME280;24444;53.216;-6.664;2022-10-01T10:05:08;99437.40;;;10.13;92.77
38688;BME280;24444;53.216;-6.664;2022-10-01T10:07:36;99438.04;;;10.16;95.31
38688;BME280;24444;53.216;-6.664;2022-10-01T10:10:08;99436.37;;;9.93;94.86
38688;BME280;24444;53.216;-6.664;2022-10-01T10:12:37;99438.28;;;9.44;96.66
38688;BME280;24444;53.216;-6.664;2022-10-01T10:15:12;99439.97;;;9.26;97.31
38688;BME280;24444;53.216;-6.664;2022-10-01T10:17:42;99437.34;;;8.84;100.00
38688;BME280;24444;53.216;-6.664;2022-10-01T10:20:18;99439.15;;;8.78;100.00
38688;BME280;24444;53.216;-6.664;2022-10-01T10:22:47;99440.96;;;9.46;100.00
38688;BME280;24444;53.216;-6.664;2022-10-01T10:25:21;99441.36;;;10.30;100.00
38688;BME280;24444;53.216;-6.664;2022-10-01T10:27:52;99449.63;;;12.19;94.59
38688;BME280;24444;53.216;-6.664;2022-10-01T10:30:21;99448.13;;;11.89;88.54
38688;BME280;24444;53.216;-6.664;2022-10-01T10:32:50;99446.70;;;13.34;85.82
38688;BME280;24444;53.216;-6.664;2022-10-01T10:35:22;99448.72;;;14.91;76.25
38688;BME280;24444;53.216;-6.664;2022-10-01T10:37:52;99453.90;;;13.91;74.44
38688;BME280;24444;53.216;-6.664;2022-10-01T10:40:22;99457.31;;;13.00;76.03
38688;BME280;24444;53.216;-6.664;2022-10-01T10:42:52;99455.14;;;12.31;78.20
38688;BME280;24444;53.216;-6.664;2022-10-01T10:45:24;99464.46;;;11.34;82.99
38688;BME280;24444;53.216;-6.664;2022-10-01T10:47:53;99461.32;;;10.55;85.11
38688;BME280;24444;53.216;-6.664;2022-10-01T10:50:29;99460.96;;;11.11;84.77
38688;BME280;24444;53.216;-6.664;2022-10-01T10:52:57;99462.05;;;12.08;82.86
38688;BME280;24444;53.216;-6.664;2022-10-01T10:55:26;99464.56;;;11.47;83.03
38688;BME280;24444;53.216;-6.664;2022-10-01T10:57:54;99465.57;;;11.00;82.98
38688;BME280;24444;53.216;-6.664;2022-10-01T11:00:24;99465.24;;;12.26;79.64
38688;BME280;24444;53.216;-6.664;2022-10-01T11:02:54;99469.63;;;12.62;76.15
38688;BME280;24444;53.216;-6.664;2022-10-01T11:05:24;99468.47;;;12.62;76.36
38688;BME280;24444;53.216;-6.664;2022-10-01T11:07:54;99476.37;;;12.64;75.92
38688;BME280;24444;53.216;-6.664;2022-10-01T11:10:30;99484.37;;;13.46;74.36
38688;BME280;24444;53.216;-6.664;2022-10-01T11:13:14;99490.84;;;13.95;68.77
38688;BME280;24444;53.216;-6.664;2022-10-01T11:15:52;99495.52;;;13.96;68.30
38688;BME280;24444;53.216;-6.664;2022-10-01T11:18:32;99503.10;;;14.00;68.04
38688;BME280;24444;53.216;-6.664;2022-10-01T11:21:16;99509.71;;;13.93;67.45
38688;BME280;24444;53.216;-6.664;2022-10-01T11:23:59;99504.34;;;13.27;66.98
38688;BME280;24444;53.216;-6.664;2022-10-01T11:26:39;99509.54;;;12.47;65.91
38688;BME280;24444;53.216;-6.664;2022-10-01T11:29:22;99509.89;;;13.39;69.60
38688;BME280;24444;53.216;-6.664;2022-10-01T11:31:59;99502.10;;;13.72;68.71
38688;BME280;24444;53.216;-6.664;2022-10-01T11:34:43;99497.48;;;13.73;64.77
38688;BME280;24444;53.216;-6.664;2022-10-01T11:37:25;99493.24;;;13.33;63.55
38688;BME280;24444;53.216;-6.664;2022-10-01T11:40:00;99499.96;;;13.86;64.95
38688;BME280;24444;53.216;-6.664;2022-10-01T11:42:33;99502.05;;;14.80;58.77
38688;BME280;24444;53.216;-6.664;2022-10-01T11:45:05;99500.79;;;15.38;56.03
38688;BME280;24444;53.216;-6.664;2022-10-01T11:47:42;99503.92;;;16.09;54.04
38688;BME280;24444;53.216;-6.664;2022-10-01T11:50:15;99510.02;;;16.22;52.77
38688;BME280;24444;53.216;-6.664;2022-10-01T11:52:48;99513.52;;;16.50;51.63
38688;BME280;24444;53.216;-6.664;2022-10-01T11:55:21;99508.26;;;14.98;51.56
38688;BME280;24444;53.216;-6.664;2022-10-01T11:57:54;99520.17;;;14.66;56.11
38688;BME280;24444;53.216;-6.664;2022-10-01T12:00:23;99517.62;;;15.22;54.01
38688;BME280;24444;53.216;-6.664;2022-10-01T12:02:53;99512.73;;;15.19;52.13
38688;BME280;24444;53.216;-6.664;2022-10-01T12:05:26;99505.86;;;14.80;52.22
38688;BME280;24444;53.216;-6.664;2022-10-01T12:08:02;99513.27;;;14.83;55.64
38688;BME280;24444;53.216;-6.664;2022-10-01T12:10:34;99509.88;;;14.46;54.29
38688;BME280;24444;53.216;-6.664;2022-10-01T12:13:09;99504.65;;;14.51;55.79
38688;BME280;24444;53.216;-6.664;2022-10-01T12:15:43;99505.49;;;13.92;53.73
38688;BME280;24444;53.216;-6.664;2022-10-01T12:18:20;99510.01;;;13.94;55.84
38688;BME280;24444;53.216;-6.664;2022-10-01T12:20:51;99515.16;;;14.84;55.77
38688;BME280;24444;53.216;-6.664;2022-10-01T12:23:21;99513.96;;;14.75;52.91
38688;BME280;24444;53.216;-6.664;2022-10-01T12:25:58;99513.61;;;15.23;54.13
38688;BME280;24444;53.216;-6.664;2022-10-01T12:28:34;99517.31;;;14.83;51.61
38688;BME280;24444;53.216;-6.664;2022-10-01T12:31:07;99531.85;;;14.61;52.79
38688;BME280;24444;53.216;-6.664;2022-10-01T12:34:16;99529.62;;;14.25;51.53
38688;BME280;24444;53.216;-6.664;2022-10-01T12:36:52;99530.19;;;13.93;53.36
38688;BME280;24444;53.216;-6.664;2022-10-01T12:39:30;99527.10;;;13.99;53.23
38688;BME280;24444;53.216;-6.664;2022-10-01T12:42:12;99539.30;;;14.54;51.75
38688;BME280;24444;53.216;-6.664;2022-10-01T12:44:54;99539.72;;;14.52;51.45
38688;BME280;24444;53.216;-6.664;2022-10-01T12:47:36;99538.33;;;14.16;51.33
38688;BME280;24444;53.216;-6.664;2022-10-01T12:50:20;99543.32;;;14.13;51.03
38688;BME280;24444;53.216;-6.664;2022-10-01T12:52:59;99553.89;;;14.41;50.64
38688;BME280;24444;53.216;-6.664;2022-10-01T12:55:44;99554.89;;;14.27;51.30
38688;BME280;24444;53.216;-6.664;2022-10-01T12:58:21;99566.26;;;13.72;51.77
38688;BME280;24444;53.216;-6.664;2022-10-01T13:00:58;99574.83;;;13.37;50.69
38688;BME280;24444;53.216;-6.664;2022-10-01T13:03:40;99569.96;;;13.72;51.20
38688;BME280;24444;53.216;-6.664;2022-10-01T13:06:21;99577.92;;;12.94;52.62
38688;BME280;24444;53.216;-6.664;2022-10-01T13:09:01;99583.85;;;12.82;56.58
38688;BME280;24444;53.216;-6.664;2022-10-01T13:11:42;99587.36;;;12.61;57.80